createdAt,value
2019-04-03T00:00:18.630Z,99.90
2019-04-03T00:02:48.223Z,99.90
2019-04-03T00:05:17.511Z,99.90
2019-04-03T00:07:46.805Z,99.90
2019-04-03T00:10:16.379Z,99.90
2019-04-03T00:12:46.076Z,99.90
2019-04-03T00:15:15.546Z,99.90
2019-04-03T00:17:45.997Z,99.90
2019-04-03T00:20:18.211Z,99.90
2019-04-03T00:22:46.844Z,99.90
2019-04-03T00:25:16.468Z,99.90
2019-04-03T00:27:45.762Z,99.90
2019-04-03T00:30:15.797Z,99.90
2019-04-03T00:32:45.491Z,99.90
2019-04-03T00:35:14.868Z,99.90
2019-04-03T00:37:44.155Z,99.90
2019-04-03T00:40:14.294Z,99.90
2019-04-03T00:42:43.583Z,99.90
2019-04-03T00:45:13.793Z,99.90
2019-04-03T00:47:43.103Z,99.90
2019-04-03T00:50:12.808Z,99.90
2019-04-03T00:52:42.097Z,99.90
2019-04-03T00:55:11.506Z,99.90
2019-04-03T00:57:40.799Z,99.90
2019-04-03T01:00:17.400Z,99.90
2019-04-03T01:02:46.698Z,99.90
2019-04-03T01:05:15.985Z,99.90
2019-04-03T01:07:45.311Z,99.90
2019-04-03T01:10:15.329Z,99.90
2019-04-03T01:12:44.611Z,99.90
2019-04-03T01:15:17.416Z,99.90
2019-04-03T01:17:47.015Z,99.90
2019-04-03T01:20:16.442Z,99.90
2019-04-03T01:22:45.919Z,99.90
2019-04-03T01:25:15.246Z,99.90
2019-04-03T01:27:47.642Z,99.90
2019-04-03T01:30:17.203Z,99.90
2019-04-03T01:32:47.150Z,99.90
2019-04-03T01:35:17.421Z,99.90
2019-04-03T01:37:47.896Z,99.90
2019-04-03T01:40:20.219Z,99.90
2019-04-03T01:42:52.256Z,99.90
2019-04-03T01:45:20.706Z,99.90
2019-04-03T01:47:50.539Z,99.90
2019-04-03T01:50:19.849Z,99.90
2019-04-03T01:52:49.128Z,99.90
2019-04-03T01:55:18.807Z,99.90
2019-04-03T01:57:48.113Z,99.90
2019-04-03T02:00:18.150Z,99.90
2019-04-03T02:02:50.297Z,99.90
2019-04-03T02:05:19.587Z,99.90
2019-04-03T02:07:48.872Z,99.90
2019-04-03T02:10:21.035Z,99.90
2019-04-03T02:12:51.239Z,99.90
2019-04-03T02:15:21.614Z,99.90
2019-04-03T02:17:55.799Z,99.90
2019-04-03T02:20:26.692Z,99.90
2019-04-03T02:22:56.246Z,99.90
2019-04-03T02:25:25.606Z,99.90
2019-04-03T02:27:55.198Z,99.90
2019-04-03T02:30:24.518Z,99.90
2019-04-03T02:32:56.364Z,99.90
2019-04-03T02:38:45.941Z,99.90
2019-04-03T02:44:20.597Z,99.90
2019-04-03T02:46:50.059Z,99.90
2019-04-03T02:49:19.438Z,99.90
2019-04-03T03:02:04.933Z,99.90
2019-04-03T03:02:13.618Z,99.90
2019-04-03T03:04:43.759Z,99.90
2019-04-03T03:07:13.292Z,99.90
2019-04-03T03:09:45.596Z,99.90
2019-04-03T03:12:14.075Z,99.90
2019-04-03T03:14:44.143Z,99.90
2019-04-03T03:17:13.664Z,99.90
2019-04-03T03:19:43.275Z,99.90
2019-04-03T03:22:17.198Z,99.90
2019-04-03T03:24:45.233Z,99.90
2019-04-03T03:27:14.934Z,99.90
2019-04-03T03:29:44.463Z,99.90
2019-04-03T03:32:19.881Z,99.90
2019-04-03T03:34:54.809Z,99.90
2019-04-03T03:37:17.283Z,99.90
2019-04-03T03:39:47.109Z,99.90
2019-04-03T03:42:16.684Z,99.90
2019-04-03T03:44:46.903Z,99.90
2019-04-03T03:47:18.816Z,99.90
2019-04-03T03:49:50.673Z,99.90
2019-04-03T03:52:21.133Z,99.90
2019-04-03T03:54:51.801Z,99.90
2019-04-03T03:57:22.349Z,99.90
2019-04-03T03:59:52.904Z,99.90
2019-04-03T04:02:22.812Z,99.90
2019-04-03T04:04:52.435Z,99.90
2019-04-03T04:07:22.424Z,99.90
2019-04-03T04:09:52.797Z,99.90
2019-04-03T04:12:22.480Z,99.90
2019-04-03T04:14:54.382Z,99.90
2019-04-03T04:17:23.432Z,99.90
2019-04-03T04:19:57.697Z,99.90
2019-04-03T04:22:28.214Z,99.90
2019-04-03T04:24:59.889Z,99.90
2019-04-03T04:27:29.763Z,99.90
2019-04-03T04:29:59.112Z,99.90
2019-04-03T04:32:28.452Z,99.90
2019-04-03T04:34:57.923Z,99.90
2019-04-03T04:37:30.155Z,99.90
2019-04-03T04:39:59.942Z,99.90
2019-04-03T04:42:30.023Z,99.90
2019-04-03T04:44:59.518Z,99.90
2019-04-03T04:47:29.020Z,99.90
2019-04-03T04:49:58.530Z,99.90
2019-04-03T04:52:28.273Z,99.90
2019-04-03T04:54:57.798Z,99.90
2019-04-03T04:57:27.402Z,99.90
2019-04-03T04:59:57.064Z,99.90
2019-04-03T05:02:26.360Z,99.90
2019-04-03T05:04:56.594Z,99.90
2019-04-03T05:07:26.097Z,99.90
2019-04-03T05:09:55.381Z,99.90
2019-04-03T05:12:24.729Z,99.90
2019-04-03T05:14:54.017Z,99.90
2019-04-03T05:17:26.131Z,99.90
2019-04-03T05:19:54.934Z,99.90
2019-04-03T05:22:24.406Z,99.90
2019-04-03T05:24:53.705Z,99.90
2019-04-03T05:27:23.250Z,99.90
2019-04-03T05:29:52.912Z,99.90
2019-04-03T05:32:22.259Z,99.90
2019-04-03T05:34:51.551Z,99.90
2019-04-03T05:37:20.984Z,99.90
2019-04-03T05:39:50.996Z,99.90
2019-04-03T05:42:20.367Z,99.90
2019-04-03T05:44:49.660Z,99.90
2019-04-03T05:47:19.196Z,99.90
2019-04-03T05:49:50.765Z,99.90
2019-04-03T05:52:19.783Z,99.90
2019-04-03T05:54:49.211Z,99.90
2019-04-03T05:57:18.811Z,99.90
2019-04-03T05:59:59.112Z,99.90
2019-04-03T06:02:20.986Z,99.90
2019-04-03T06:04:50.322Z,99.90
2019-04-03T06:07:19.880Z,99.90
2019-04-03T06:09:49.398Z,99.90
2019-04-03T06:12:19.321Z,99.90
2019-04-03T06:14:50.500Z,99.90
2019-04-03T06:17:20.403Z,99.90
2019-04-03T06:19:49.833Z,99.90
2019-04-03T06:22:21.568Z,99.90
2019-04-03T06:24:50.844Z,99.90
2019-04-03T06:27:20.439Z,99.90
2019-04-03T06:29:50.690Z,99.90
2019-04-03T06:32:24.160Z,99.90
2019-04-03T06:34:52.192Z,99.90
2019-04-03T06:37:22.247Z,99.90
2019-04-03T06:39:52.218Z,99.90
2019-04-03T06:42:21.755Z,99.90
2019-04-03T06:44:53.869Z,99.90
2019-04-03T06:47:22.884Z,99.90
2019-04-03T06:49:52.305Z,99.90
2019-04-03T06:52:22.158Z,99.90
2019-04-03T06:54:51.609Z,99.90
2019-04-03T06:57:21.171Z,99.90
2019-04-03T06:59:50.458Z,99.90
2019-04-03T07:02:20.378Z,99.90
2019-04-03T07:04:50.215Z,99.90
2019-04-03T07:07:32.118Z,99.90
2019-04-03T07:09:51.295Z,99.90
2019-04-03T07:12:21.189Z,99.90
2019-04-03T07:14:50.438Z,99.90
2019-04-03T07:17:19.778Z,99.90
2019-04-03T07:19:49.075Z,99.90
2019-04-03T07:22:21.070Z,99.90
2019-04-03T07:24:50.400Z,99.90
2019-04-03T07:27:19.695Z,99.90
2019-04-03T07:29:49.800Z,99.90
2019-04-03T07:32:19.321Z,99.90
2019-04-03T07:34:48.847Z,99.90
2019-04-03T07:37:19.911Z,99.90
2019-04-03T07:39:51.867Z,99.90
2019-04-03T07:42:24.264Z,99.90
2019-04-03T07:44:52.173Z,99.90
2019-04-03T07:47:22.565Z,99.90
2019-04-03T07:49:52.360Z,99.90
2019-04-03T07:52:21.660Z,99.90
2019-04-03T07:54:52.875Z,99.90
2019-04-03T07:57:22.386Z,99.90
2019-04-03T07:59:51.684Z,99.90
2019-04-03T08:02:21.214Z,99.90
2019-04-03T08:04:50.419Z,99.90
2019-04-03T08:07:19.975Z,99.90
2019-04-03T08:09:49.530Z,99.90
2019-04-03T08:12:18.785Z,99.90
2019-04-03T08:14:48.077Z,99.90
2019-04-03T08:17:19.053Z,99.90
2019-04-03T08:19:48.448Z,99.90
2019-04-03T08:22:18.083Z,99.90
2019-04-03T08:24:53.079Z,99.90
2019-04-03T08:27:23.458Z,99.90
2019-04-03T08:29:52.515Z,99.90
2019-04-03T08:32:22.002Z,99.90
2019-04-03T08:34:51.327Z,99.90
2019-04-03T08:37:29.595Z,99.90
2019-04-03T08:39:52.159Z,99.90
2019-04-03T08:42:21.521Z,99.90
2019-04-03T08:44:51.258Z,99.90
2019-04-03T08:47:20.866Z,99.90
2019-04-03T08:49:50.205Z,99.90
2019-04-03T08:52:19.480Z,99.90
2019-04-03T08:54:48.819Z,99.90
2019-04-03T08:57:20.519Z,99.90
2019-04-03T08:59:49.548Z,99.90
2019-04-03T09:02:19.350Z,99.90
2019-04-03T09:04:49.122Z,99.90
2019-04-03T09:07:18.752Z,99.90
2019-04-03T09:09:48.092Z,99.90
2019-04-03T09:12:17.375Z,99.90
2019-04-03T09:14:46.679Z,99.90
2019-04-03T09:17:16.016Z,99.90
2019-04-03T09:19:45.298Z,99.90
2019-04-03T09:22:14.598Z,99.90
2019-04-03T09:24:44.077Z,99.90
2019-04-03T09:27:13.387Z,99.90
2019-04-03T09:29:42.990Z,99.90
2019-04-03T09:32:14.095Z,99.90
2019-04-03T09:34:43.648Z,99.90
2019-04-03T09:37:13.154Z,99.90
2019-04-03T09:39:44.876Z,99.90
2019-04-03T09:42:14.363Z,99.90
2019-04-03T09:44:44.035Z,99.90
2019-04-03T09:47:13.939Z,99.90
2019-04-03T09:49:44.313Z,99.90
2019-04-03T09:52:14.123Z,99.90
2019-04-03T09:54:43.467Z,99.90
2019-04-03T09:57:12.755Z,99.90
2019-04-03T09:59:44.044Z,99.90
2019-04-03T10:02:13.628Z,99.90
2019-04-03T10:04:43.395Z,99.90
2019-04-03T10:07:13.005Z,99.90
2019-04-03T10:09:44.906Z,99.90
2019-04-03T10:12:14.750Z,99.90
2019-04-03T10:14:44.291Z,99.90
2019-04-03T10:17:13.648Z,99.90
2019-04-03T10:19:44.759Z,99.90
2019-04-03T10:22:14.031Z,99.90
2019-04-03T10:24:43.382Z,99.90
2019-04-03T10:27:12.689Z,99.90
2019-04-03T10:29:42.267Z,99.90
2019-04-03T10:32:12.684Z,99.90
2019-04-03T10:34:42.124Z,99.90
2019-04-03T10:37:12.193Z,99.90
2019-04-03T10:39:44.373Z,99.90
2019-04-03T10:42:13.525Z,99.90
2019-04-03T10:44:44.371Z,99.90
2019-04-03T10:47:13.677Z,99.90
2019-04-03T10:49:43.291Z,99.90
2019-04-03T10:52:13.772Z,99.90
2019-04-03T10:54:43.698Z,99.90
2019-04-03T10:57:12.962Z,99.90
2019-04-03T10:59:42.253Z,99.90
2019-04-03T11:02:11.992Z,99.90
2019-04-03T11:04:41.395Z,99.90
2019-04-03T11:07:11.237Z,99.90
2019-04-03T11:09:41.179Z,99.90
2019-04-03T11:12:10.672Z,99.90
2019-04-03T11:14:40.497Z,99.90
2019-04-03T11:17:10.397Z,99.90
2019-04-03T11:19:40.013Z,99.90
2019-04-03T11:22:09.486Z,99.90
2019-04-03T11:24:41.656Z,99.90
2019-04-03T11:27:10.258Z,99.90
2019-04-03T11:29:41.850Z,99.90
2019-04-03T11:32:10.820Z,99.90
2019-04-03T11:34:40.129Z,99.90
2019-04-03T11:37:09.574Z,99.90
2019-04-03T11:39:38.815Z,99.90
2019-04-03T11:42:08.414Z,99.90
2019-04-03T11:44:38.088Z,99.90
2019-04-03T11:47:07.325Z,99.90
2019-04-03T11:49:36.933Z,99.90
2019-04-03T11:52:06.364Z,99.90
2019-04-03T11:54:38.857Z,99.90
2019-04-03T11:57:06.671Z,99.90
2019-04-03T11:59:36.016Z,99.90
2019-04-03T12:02:07.408Z,99.90
2019-04-03T12:04:36.402Z,99.90
2019-04-03T12:07:06.173Z,99.90
2019-04-03T12:09:35.495Z,99.90
2019-04-03T12:12:04.867Z,99.90
2019-04-03T12:14:34.736Z,99.90
2019-04-03T12:17:04.545Z,99.90
2019-04-03T12:19:36.816Z,99.90
2019-04-03T12:22:05.045Z,99.90
2019-04-03T12:24:34.354Z,99.90
2019-04-03T12:27:03.648Z,99.90
2019-04-03T12:29:33.178Z,99.90
2019-04-03T12:32:03.963Z,99.90
2019-04-03T12:34:36.731Z,99.90
2019-04-03T12:37:05.003Z,99.90
2019-04-03T12:39:34.291Z,99.90
2019-04-03T12:42:04.123Z,99.90
2019-04-03T12:44:33.458Z,99.90
2019-04-03T12:47:05.619Z,99.90
2019-04-03T12:49:34.715Z,99.90
2019-04-03T12:52:05.168Z,99.90
2019-04-03T12:54:34.547Z,99.90
2019-04-03T12:57:03.878Z,99.90
2019-04-03T12:59:33.872Z,99.90
2019-04-03T13:02:03.779Z,99.90
2019-04-03T13:04:33.631Z,99.90
2019-04-03T13:07:05.372Z,99.90
2019-04-03T13:09:37.076Z,99.90
2019-04-03T13:12:05.747Z,99.90
2019-04-03T13:14:35.179Z,99.90
2019-04-03T13:17:04.851Z,99.90
2019-04-03T13:19:34.150Z,99.90
2019-04-03T13:22:04.438Z,99.90
2019-04-03T13:24:33.740Z,99.40
2019-04-03T13:27:03.437Z,99.30
2019-04-03T13:29:33.007Z,99.00
2019-04-03T13:32:02.961Z,99.00
2019-04-03T13:34:32.680Z,99.60
2019-04-03T13:37:02.503Z,98.50
2019-04-03T13:39:33.639Z,99.30
2019-04-03T13:42:03.160Z,98.50
2019-04-03T13:44:32.850Z,98.60
2019-04-03T13:47:02.397Z,98.30
2019-04-03T13:49:32.063Z,97.80
2019-04-03T13:52:05.494Z,98.10
2019-04-03T13:54:32.753Z,98.30
2019-04-03T13:57:02.221Z,99.90
2019-04-03T13:59:31.889Z,99.90
2019-04-03T14:02:01.165Z,99.90
2019-04-03T14:04:30.462Z,99.80
2019-04-03T14:07:02.763Z,98.70
2019-04-03T14:09:30.834Z,98.90
2019-04-03T14:12:00.980Z,98.00
2019-04-03T14:14:31.657Z,99.00
2019-04-03T14:17:01.069Z,98.30
2019-04-03T14:19:42.647Z,99.00
2019-04-03T14:22:01.717Z,98.40
2019-04-03T14:24:38.126Z,98.80
2019-04-03T14:27:02.757Z,97.10
2019-04-03T14:29:32.068Z,98.00
2019-04-03T14:32:01.424Z,98.00
2019-04-03T14:34:31.192Z,96.60
2019-04-03T14:37:00.689Z,97.80
2019-04-03T14:39:30.042Z,98.10
2019-04-03T14:41:59.736Z,98.00
2019-04-03T14:44:29.248Z,98.60
2019-04-03T14:46:58.938Z,97.70
2019-04-03T14:49:28.734Z,97.00
2019-04-03T14:51:59.434Z,96.90
2019-04-03T14:54:30.419Z,96.60
2019-04-03T14:57:03.818Z,97.40
2019-04-03T14:59:31.587Z,98.40
2019-04-03T15:02:01.904Z,98.60
2019-04-03T15:04:36.153Z,97.60
2019-04-03T15:07:08.363Z,97.40
2019-04-03T15:09:33.584Z,98.70
2019-04-03T15:12:05.831Z,98.50
2019-04-03T15:14:34.037Z,97.80
2019-04-03T15:17:04.749Z,98.20
2019-04-03T15:19:34.969Z,97.90
2019-04-03T15:22:04.475Z,97.90
2019-04-03T15:24:34.007Z,97.70
2019-04-03T15:27:03.336Z,98.10
2019-04-03T15:29:32.966Z,98.90
2019-04-03T15:32:02.814Z,97.50
2019-04-03T15:34:32.234Z,98.40
2019-04-03T15:37:01.926Z,97.80
2019-04-03T15:39:31.336Z,97.70
2019-04-03T15:42:00.963Z,97.60
2019-04-03T15:44:30.626Z,97.90
2019-04-03T15:47:01.263Z,97.20
2019-04-03T15:49:31.301Z,97.00
2019-04-03T15:52:00.900Z,97.60
2019-04-03T15:54:32.914Z,98.70
2019-04-03T15:57:01.263Z,97.90
2019-04-03T15:59:30.897Z,97.80
2019-04-03T16:02:01.886Z,97.40
2019-04-03T16:04:33.542Z,97.30
2019-04-03T16:07:02.314Z,97.30
2019-04-03T16:09:31.608Z,97.60
2019-04-03T16:12:04.156Z,96.90
2019-04-03T16:14:31.975Z,97.30
2019-04-03T16:17:02.509Z,97.30
2019-04-03T16:19:32.589Z,97.20
2019-04-03T16:22:02.718Z,97.50
2019-04-03T16:24:32.862Z,98.30
2019-04-03T16:27:02.774Z,98.70
2019-04-03T16:29:32.429Z,98.70
2019-04-03T16:32:01.989Z,98.40
2019-04-03T16:34:31.327Z,99.20
2019-04-03T16:37:01.152Z,99.20
2019-04-03T16:39:32.543Z,99.30
2019-04-03T16:42:01.874Z,98.80
2019-04-03T16:44:31.209Z,99.10
2019-04-03T16:47:00.472Z,99.30
2019-04-03T16:49:30.424Z,99.30
2019-04-03T16:51:59.815Z,99.90
2019-04-03T16:54:30.510Z,99.90
2019-04-03T16:57:03.477Z,99.90
2019-04-03T16:59:35.426Z,99.70
2019-04-03T17:02:03.213Z,99.40
2019-04-03T17:04:34.558Z,99.90
2019-04-03T17:07:04.372Z,99.70
2019-04-03T17:09:37.496Z,99.90
2019-04-03T17:12:04.947Z,99.90
2019-04-03T17:14:34.241Z,99.90
2019-04-03T17:17:03.611Z,99.90
2019-04-03T17:19:32.939Z,99.90
2019-04-03T17:22:05.769Z,99.90
2019-04-03T17:24:41.432Z,99.90
2019-04-03T17:27:04.899Z,99.90
2019-04-03T17:29:34.199Z,99.90
2019-04-03T17:32:07.179Z,99.90
2019-04-03T17:34:37.177Z,99.90
2019-04-03T17:37:06.367Z,99.90
2019-04-03T17:39:36.269Z,99.90
2019-04-03T17:42:06.791Z,99.90
2019-04-03T17:44:38.342Z,99.90
2019-04-03T17:47:07.784Z,99.90
2019-04-03T17:49:37.126Z,99.90
2019-04-03T17:52:06.421Z,99.90
2019-04-03T17:54:38.280Z,99.90
2019-04-03T17:57:06.785Z,99.90
2019-04-03T17:59:36.119Z,99.60
2019-04-03T18:02:05.488Z,99.10
2019-04-03T18:04:34.830Z,99.00
2019-04-03T18:07:04.390Z,98.90
2019-04-03T18:09:36.209Z,99.10
2019-04-03T18:12:05.302Z,99.30
2019-04-03T18:14:34.590Z,99.10
2019-04-03T18:17:04.117Z,99.40
2019-04-03T18:19:37.618Z,99.40
2019-04-03T18:22:04.840Z,99.60
2019-04-03T18:24:34.133Z,99.40
2019-04-03T18:27:06.445Z,99.50
2019-04-03T18:29:37.667Z,99.70
2019-04-03T18:32:06.895Z,99.70
2019-04-03T18:34:36.245Z,99.90
2019-04-03T18:37:07.414Z,99.90
2019-04-03T18:39:36.899Z,99.90
2019-04-03T18:42:06.250Z,99.90
2019-04-03T18:44:35.547Z,99.90
2019-04-03T18:47:06.657Z,99.90
2019-04-03T18:49:36.424Z,99.90
2019-04-03T18:52:07.564Z,99.90
2019-04-03T18:54:36.788Z,99.90
2019-04-03T18:57:06.138Z,99.90
2019-04-03T18:59:35.606Z,99.90
2019-04-03T19:02:04.957Z,99.90
2019-04-03T19:04:34.303Z,99.90
2019-04-03T19:07:03.947Z,99.90
2019-04-03T19:09:33.223Z,99.90
2019-04-03T19:12:08.459Z,99.90
2019-04-03T19:14:33.819Z,99.90
2019-04-03T19:17:03.119Z,99.90
2019-04-03T19:19:32.461Z,99.90
2019-04-03T19:22:01.752Z,99.90
2019-04-03T19:24:31.034Z,99.90
2019-04-03T19:27:02.150Z,99.90
2019-04-03T19:29:31.628Z,99.90
2019-04-03T19:32:00.913Z,99.90
2019-04-03T19:34:30.261Z,99.90
2019-04-03T19:37:02.756Z,99.90
2019-04-03T19:39:30.594Z,99.90
2019-04-03T19:41:59.939Z,99.90
2019-04-03T19:44:29.227Z,99.90
2019-04-03T19:46:58.521Z,99.90
2019-04-03T19:49:28.229Z,99.90
2019-04-03T19:51:57.589Z,99.90
2019-04-03T19:54:26.889Z,99.90
2019-04-03T19:56:57.027Z,99.90
2019-04-03T19:59:29.921Z,99.90
2019-04-03T20:01:57.727Z,99.90
2019-04-03T20:04:27.074Z,99.90
2019-04-03T20:06:56.366Z,99.90
2019-04-03T20:09:25.975Z,99.90
2019-04-03T20:11:55.286Z,99.90
2019-04-03T20:14:24.572Z,99.90
2019-04-03T20:16:54.478Z,99.90
2019-04-03T20:19:24.911Z,99.90
2019-04-03T20:21:54.995Z,99.90
2019-04-03T20:24:25.260Z,99.90
2019-04-03T20:26:55.085Z,99.90
2019-04-03T20:29:27.547Z,99.90
2019-04-03T20:31:55.672Z,99.90
2019-04-03T20:34:25.021Z,99.90
2019-04-03T20:36:55.007Z,99.90
2019-04-03T20:39:24.464Z,99.90
2019-04-03T20:41:53.810Z,99.90
2019-04-03T20:44:23.096Z,99.90
2019-04-03T20:46:52.378Z,99.90
2019-04-03T20:49:21.746Z,99.90
2019-04-03T20:51:51.039Z,99.90
2019-04-03T20:54:21.327Z,99.90
2019-04-03T20:56:57.791Z,99.90
2019-04-03T20:59:22.506Z,99.90
2019-04-03T21:01:51.874Z,99.90
2019-04-03T21:04:21.204Z,99.90
2019-04-03T21:06:51.799Z,99.90
2019-04-03T21:09:21.551Z,99.90
2019-04-03T21:11:50.888Z,99.90
2019-04-03T21:14:20.197Z,99.90
2019-04-03T21:16:49.481Z,99.90
2019-04-03T21:19:21.194Z,99.90
2019-04-03T21:21:49.831Z,99.90
2019-04-03T21:24:19.110Z,99.90
2019-04-03T21:26:48.440Z,99.90
2019-04-03T21:29:17.728Z,99.90
2019-04-03T21:31:47.304Z,99.90
2019-04-03T21:34:16.631Z,99.90
2019-04-03T21:36:45.917Z,99.90
2019-04-03T21:39:15.509Z,99.90
2019-04-03T21:41:44.847Z,99.90
2019-04-03T21:44:14.420Z,99.90
2019-04-03T21:46:43.701Z,99.90
2019-04-03T21:49:13.049Z,99.90
2019-04-03T21:51:42.623Z,99.90
2019-04-03T21:54:11.913Z,99.90
2019-04-03T21:56:41.242Z,99.90
2019-04-03T21:59:11.463Z,99.90
2019-04-03T22:01:40.899Z,99.90
2019-04-03T22:04:10.249Z,99.90
2019-04-03T22:06:39.536Z,99.90
2019-04-03T22:09:12.582Z,99.90
2019-04-03T22:11:41.908Z,99.90
2019-04-03T22:14:11.713Z,99.90
2019-04-03T22:16:41.263Z,99.90
2019-04-03T22:19:10.605Z,99.90
2019-04-03T22:21:43.353Z,99.90
2019-04-03T22:24:12.947Z,99.90
2019-04-03T22:26:42.297Z,99.90
2019-04-03T22:29:11.565Z,99.90
2019-04-03T22:31:40.857Z,99.90
2019-04-03T22:34:10.501Z,99.90
2019-04-03T22:36:39.796Z,99.90
2019-04-03T22:39:09.080Z,99.90
2019-04-03T22:41:38.422Z,99.90
2019-04-03T22:44:07.711Z,99.90
2019-04-03T22:46:36.999Z,99.90
2019-04-03T22:49:06.337Z,99.90
2019-04-03T22:51:35.903Z,99.90
2019-04-03T22:54:06.897Z,99.90
2019-04-03T22:56:36.508Z,99.90
2019-04-03T22:59:05.866Z,99.90
2019-04-03T23:01:35.426Z,99.90
2019-04-03T23:04:05.926Z,99.90
2019-04-03T23:06:35.260Z,99.90
2019-04-03T23:09:07.406Z,99.90
2019-04-03T23:11:36.741Z,99.90
2019-04-03T23:14:07.556Z,99.90
2019-04-03T23:16:37.065Z,99.90
2019-04-03T23:19:06.412Z,99.90
2019-04-03T23:21:35.691Z,99.90
2019-04-03T23:24:04.971Z,99.90
2019-04-03T23:26:34.303Z,99.90
2019-04-03T23:29:05.256Z,99.90
2019-04-03T23:31:34.666Z,99.90
2019-04-03T23:34:04.007Z,99.90
2019-04-03T23:36:33.308Z,99.90
2019-04-03T23:39:02.600Z,99.90
2019-04-03T23:41:31.926Z,99.90
2019-04-03T23:44:01.496Z,99.90
2019-04-03T23:46:30.782Z,99.90
2019-04-03T23:49:00.517Z,99.90
2019-04-03T23:51:29.808Z,99.90
2019-04-03T23:53:59.095Z,99.90
2019-04-03T23:56:28.426Z,99.90
2019-04-03T23:58:57.725Z,99.90
